Terminal Aerodrome Forecast
Issued by NWS

Home | Current Version | Previous Version | Text Only | Print | Product List | Glossary On
Versions: 1 2 3 4 5 6 7 8 9 10 11 12 13 14 15 16 17 18 19 20 21
000
FTUS46 KEKA 021729
TAFUKI
TAF
KUKI 021729Z 0218/0318 35006KT P6SM SKC
     FM022100 29011KT P6SM SKC
     FM030200 31006KT P6SM SKC
     FM030600 31004KT P6SM SCT005
     FM031600 29008KT P6SM SKC=

USA.gov is the U.S. government's official web portal to all federal, state and local government web resources and services.